Time;durP1;ratioP1;P1;durP2;ratioP2;P2;SDS_P1;SDS_P2;PMS_P1;PMS_P2;Temp;Humidity;BMP_temperature;BMP_pressure;BME280_temperature;BME280_humidity;BME280_pressure;Samples;Min_cycle;Max_cycle;Signal;HPM_P1;HPM_P2
2023/08/30 00:01:49;;;;;;;;;;;;;;;;;;5073378;28;19978;-71
2023/08/30 00:04:16;;;;;;;;;;;;;;;;;;5072008;28;19924;-72
2023/08/30 00:06:43;;;;;;;;;;;;;;;;;;5072887;28;19977;-71
2023/08/30 00:09:10;;;;;;;;;;;;;;;;;;5072345;28;19928;-71
2023/08/30 00:11:37;;;;;;;;;;;;;;;;;;5073361;28;19928;-69
2023/08/30 00:14:05;;;;;;;;;;;;;;;;;;5071613;28;20375;-71
2023/08/30 00:16:34;;;;;;;;;;;;;;;;;;5067223;28;21190;-71
2023/08/30 00:19:01;;;;;;;;;;;;;;;;;;5072357;28;19936;-71
2023/08/30 00:21:28;;;;;;;;;;;;;;;;;;5071519;28;19924;-70
2023/08/30 00:23:55;;;;;;;;;;;;;;;;;;5072486;28;19978;-70
2023/08/30 00:26:22;;;;;;;;;;;;;;;;;;5073051;28;20019;-71
2023/08/30 00:28:49;;;;;;;;;;;;;;;;;;5072561;28;20036;-71
2023/08/30 00:31:17;;;;;;;;;;;;;;;;;;5071169;28;19952;-71
2023/08/30 00:33:44;;;;;;;;;;;;;;;;;;5072541;28;20020;-69
2023/08/30 00:36:19;;;;;;;;;;;;;;;;;;5072719;28;20375;-70
2023/08/30 00:38:46;;;;;;;;;;;;;;;;;;5068960;28;19931;-69
2023/08/30 00:41:13;;;;;;;;;;;;;;;;;;5071390;28;20341;-69
2023/08/30 00:43:40;;;;;;;;;;;;;;;;;;5072820;28;19924;-70
2023/08/30 00:46:07;;;;;;;;;;;;;;;;;;5072544;28;19924;-72
2023/08/30 00:48:34;;;;;;;;;;;;;;;;;;5069715;28;20311;-70
2023/08/30 00:51:01;;;;;;;;;;;;;;;;;;5071200;28;19978;-72
2023/08/30 00:53:28;;;;;;;;;;;;;;;;;;5072423;28;19924;-71
2023/08/30 00:55:55;;;;;;;;;;;;;;;;;;5073002;28;19932;-71
2023/08/30 00:58:22;;;;;;;;;;;;;;;;;;5071972;28;19985;-71
2023/08/30 01:00:50;;;;;;;;;;;;;;;;;;5071744;28;20320;-71
2023/08/30 01:03:17;;;;;;;;;;;;;;;;;;5072357;28;19932;-71
2023/08/30 01:05:44;;;;;;;;;;;;;;;;;;5072883;28;19985;-70
2023/08/30 01:08:11;;;;;;;;;;;;;;;;;;5071807;28;20312;-71
2023/08/30 01:10:38;;;;;;;;;;;;;;;;;;5069093;28;20024;-71
2023/08/30 01:13:05;;;;;;;;;;;;;;;;;;5067057;28;20391;-70
2023/08/30 01:15:32;;;;;;;;;;;;;;;;;;5071308;28;19978;-71
2023/08/30 01:17:59;;;;;;;;;;;;;;;;;;5071243;28;20455;-71
2023/08/30 01:20:26;;;;;;;;;;;;;;;;;;5071325;28;19932;-71
2023/08/30 01:22:53;;;;;;;;;;;;;;;;;;5071741;28;19928;-71
2023/08/30 01:28:02;;;;;;;;;;;;;;;;;;5062132;28;20315;-71
2023/08/30 01:30:33;;;;;;;;;;;;;;;;;;5072382;28;19925;-71
2023/08/30 01:33:03;;;;;;;;;;;;;;;;;;5071723;28;19924;-71
2023/08/30 01:35:32;;;;;;;;;;;;;;;;;;5054433;28;19939;-71
2023/08/30 01:37:59;;;;;;;;;;;;;;;;;;5074807;28;19930;-71
2023/08/30 01:40:26;;;;;;;;;;;;;;;;;;5074894;28;19986;-70
2023/08/30 01:42:53;;;;;;;;;;;;;;;;;;5076160;28;19970;-71
2023/08/30 01:45:20;;;;;;;;;;;;;;;;;;5072689;28;19928;-70
2023/08/30 01:47:47;;;;;;;;;;;;;;;;;;5074687;28;19925;-70
2023/08/30 01:50:14;;;;;;;;;;;;;;;;;;5074907;28;19978;-70
2023/08/30 01:52:41;;;;;;;;;;;;;;;;;;5076327;28;19925;-70
2023/08/30 01:55:08;;;;;;;;;;;;;;;;;;5075982;28;19925;-70
2023/08/30 01:57:35;;;;;;;;;;;;;;;;;;5075233;28;19974;-69
2023/08/30 02:00:02;;;;;;;;;;;;;;;;;;5074767;28;19925;-69
2023/08/30 02:02:29;;;;;;;;;;;;;;;;;;5075092;28;19925;-69
2023/08/30 02:04:56;;;;;;;;;;;;;;;;;;5073621;28;19929;-69
2023/08/30 02:07:23;;;;;;;;;;;;;;;;;;5075116;28;19947;-69
2023/08/30 02:09:50;;;;;;;;;;;;;;;;;;5074720;28;19931;-69
2023/08/30 02:12:17;;;;;;;;;;;;;;;;;;5075137;28;19924;-68
2023/08/30 02:14:44;;;;;;;;;;;;;;;;;;5074260;28;20342;-70
2023/08/30 02:17:11;;;;;;;;;;;;;;;;;;5075198;28;19928;-69
2023/08/30 02:19:38;;;;;;;;;;;;;;;;;;5075588;28;19924;-68
2023/08/30 02:22:05;;;;;;;;;;;;;;;;;;5075816;28;19970;-69
2023/08/30 02:24:32;;;;;;;;;;;;;;;;;;5074803;28;19950;-70
2023/08/30 02:26:59;;;;;;;;;;;;;;;;;;5076023;28;19970;-69
2023/08/30 02:29:26;;;;;;;;;;;;;;;;;;5076060;28;20001;-69
2023/08/30 02:31:53;;;;;;;;;;;;;;;;;;5075224;28;19924;-69
2023/08/30 02:34:20;;;;;;;;;;;;;;;;;;5071621;28;20458;-70
2023/08/30 02:36:47;;;;;;;;;;;;;;;;;;5074084;28;19925;-70
2023/08/30 02:39:14;;;;;;;;;;;;;;;;;;5074175;28;19970;-71
2023/08/30 02:41:41;;;;;;;;;;;;;;;;;;5074482;28;20388;-70
2023/08/30 02:44:08;;;;;;;;;;;;;;;;;;5074060;28;19932;-70
2023/08/30 02:46:37;;;;;;;;;;;;;;;;;;5072625;28;20303;-70
2023/08/30 02:49:05;;;;;;;;;;;;;;;;;;5075431;28;20328;-71
2023/08/30 02:51:32;;;;;;;;;;;;;;;;;;5071650;28;20015;-71
2023/08/30 02:53:59;;;;;;;;;;;;;;;;;;5074760;28;20455;-70
2023/08/30 02:56:26;;;;;;;;;;;;;;;;;;5073328;28;19994;-69
2023/08/30 02:58:53;;;;;;;;;;;;;;;;;;5073338;28;21731;-70
2023/08/30 03:01:20;;;;;;;;;;;;;;;;;;5060101;28;19925;-71
2023/08/30 03:03:47;;;;;;;;;;;;;;;;;;5054363;28;19925;-71
2023/08/30 03:06:15;;;;;;;;;;;;;;;;;;5070136;28;20426;-70
2023/08/30 03:08:41;;;;;;;;;;;;;;;;;;5073394;28;19924;-71
2023/08/30 03:11:08;;;;;;;;;;;;;;;;;;5073976;28;20019;-71
2023/08/30 03:13:36;;;;;;;;;;;;;;;;;;5074690;28;19924;-71
2023/08/30 03:16:03;;;;;;;;;;;;;;;;;;5073270;28;19932;-71
2023/08/30 03:18:30;;;;;;;;;;;;;;;;;;5073247;28;20445;-71
2023/08/30 03:20:57;;;;;;;;;;;;;;;;;;5074384;28;19977;-71
2023/08/30 03:23:25;;;;;;;;;;;;;;;;;;5073995;28;19925;-71
2023/08/30 03:25:52;;;;;;;;;;;;;;;;;;5074413;28;19991;-71
2023/08/30 03:28:19;;;;;;;;;;;;;;;;;;5071801;28;19978;-71
2023/08/30 03:30:46;;;;;;;;;;;;;;;;;;5073656;28;20276;-70
2023/08/30 03:33:13;;;;;;;;;;;;;;;;;;5073637;28;19932;-71
2023/08/30 03:35:40;;;;;;;;;;;;;;;;;;5074047;28;19931;-71
2023/08/30 03:38:07;;;;;;;;;;;;;;;;;;5073989;28;19925;-71
2023/08/30 03:40:34;;;;;;;;;;;;;;;;;;5071777;28;19925;-69
2023/08/30 03:43:01;;;;;;;;;;;;;;;;;;5073705;28;19928;-71
2023/08/30 03:45:28;;;;;;;;;;;;;;;;;;5072231;28;19928;-70
2023/08/30 03:47:55;;;;;;;;;;;;;;;;;;5073153;28;20444;-70
2023/08/30 03:50:22;;;;;;;;;;;;;;;;;;5065506;28;19974;-70
2023/08/30 03:52:49;;;;;;;;;;;;;;;;;;5071808;28;20383;-71
2023/08/30 03:55:16;;;;;;;;;;;;;;;;;;5072376;28;19978;-70
2023/08/30 03:57:43;;;;;;;;;;;;;;;;;;5072968;28;19964;-71
2023/08/30 04:00:10;;;;;;;;;;;;;;;;;;5070631;28;21093;-71
2023/08/30 04:02:37;;;;;;;;;;;;;;;;;;5072341;28;19947;-71
2023/08/30 04:05:08;;;;;;;;;;;;;;;;;;5072161;28;20050;-71
2023/08/30 04:07:35;;;;;;;;;;;;;;;;;;5073259;28;19924;-71
2023/08/30 04:10:06;;;;;;;;;;;;;;;;;;5072619;28;19929;-70
2023/08/30 04:12:32;;;;;;;;;;;;;;;;;;5072660;28;20442;-70
2023/08/30 04:14:59;;;;;;;;;;;;;;;;;;5072241;28;20098;-71
2023/08/30 04:17:26;;;;;;;;;;;;;;;;;;5072896;28;19924;-70
2023/08/30 04:19:53;;;;;;;;;;;;;;;;;;5072489;28;19985;-70
2023/08/30 04:22:21;;;;;;;;;;;;;;;;;;5073218;28;19925;-70
2023/08/30 04:24:48;;;;;;;;;;;;;;;;;;5071594;28;19925;-70
2023/08/30 04:27:14;;;;;;;;;;;;;;;;;;5072689;28;20345;-70
2023/08/30 04:29:44;;;;;;;;;;;;;;;;;;5071737;28;19951;-71
2023/08/30 04:32:11;;;;;;;;;;;;;;;;;;5071667;28;20012;-71
2023/08/30 04:34:38;;;;;;;;;;;;;;;;;;5065701;28;20445;-70
2023/08/30 04:37:05;;;;;;;;;;;;;;;;;;5071726;28;19963;-69
2023/08/30 04:39:32;;;;;;;;;;;;;;;;;;5071271;28;19925;-71
2023/08/30 04:42:00;;;;;;;;;;;;;;;;;;5071634;28;20020;-71
2023/08/30 04:44:27;;;;;;;;;;;;;;;;;;5071078;28;19931;-71
2023/08/30 04:46:54;;;;;;;;;;;;;;;;;;5070617;28;19924;-71
2023/08/30 04:49:21;;;;;;;;;;;;;;;;;;5071416;28;19959;-70
2023/08/30 04:51:48;;;;;;;;;;;;;;;;;;5072017;28;19925;-70
2023/08/30 04:54:15;;;;;;;;;;;;;;;;;;5072505;28;20437;-69
2023/08/30 04:56:42;;;;;;;;;;;;;;;;;;5072712;28;19928;-69
2023/08/30 04:59:09;;;;;;;;;;;;;;;;;;5070609;28;19930;-69
2023/08/30 05:01:37;;;;;;;;;;;;;;;;;;5072326;28;19924;-69
2023/08/30 05:04:05;;;;;;;;;;;;;;;;;;5072036;28;19925;-69
2023/08/30 05:06:32;;;;;;;;;;;;;;;;;;5071864;28;20334;-68
2023/08/30 05:08:59;;;;;;;;;;;;;;;;;;5070520;28;19924;-68
2023/08/30 05:11:26;;;;;;;;;;;;;;;;;;5071915;28;19925;-69
2023/08/30 05:13:53;;;;;;;;;;;;;;;;;;5070468;28;19928;-70
2023/08/30 05:16:20;;;;;;;;;;;;;;;;;;5072258;28;20406;-70
2023/08/30 05:18:48;;;;;;;;;;;;;;;;;;5070722;28;19964;-70
2023/08/30 05:21:15;;;;;;;;;;;;;;;;;;5072114;28;19963;-69
2023/08/30 05:23:42;;;;;;;;;;;;;;;;;;5071562;28;19924;-70
2023/08/30 05:26:09;;;;;;;;;;;;;;;;;;5072259;28;19964;-69
2023/08/30 05:28:36;;;;;;;;;;;;;;;;;;5071039;28;19928;-69
2023/08/30 05:31:03;;;;;;;;;;;;;;;;;;5067630;28;20631;-69
2023/08/30 05:33:30;;;;;;;;;;;;;;;;;;5071939;28;19970;-69
2023/08/30 05:35:57;;;;;;;;;;;;;;;;;;5071911;28;19925;-69
2023/08/30 05:38:24;;;;;;;;;;;;;;;;;;5070951;28;19925;-70
2023/08/30 05:40:51;;;;;;;;;;;;;;;;;;5069984;28;19925;-68
2023/08/30 05:43:18;;;;;;;;;;;;;;;;;;5069467;28;19932;-69
2023/08/30 05:45:45;;;;;;;;;;;;;;;;;;5069364;28;19956;-68
2023/08/30 05:48:12;;;;;;;;;;;;;;;;;;5069765;28;19925;-68
2023/08/30 05:50:40;;;;;;;;;;;;;;;;;;5069732;28;20395;-69
2023/08/30 05:53:07;;;;;;;;;;;;;;;;;;5066143;28;20450;-68
2023/08/30 05:55:34;;;;;;;;;;;;;;;;;;5069381;28;19986;-70
2023/08/30 05:58:01;;;;;;;;;;;;;;;;;;5069263;28;19928;-69
2023/08/30 06:00:28;;;;;;;;;;;;;;;;;;5068751;28;19924;-69
2023/08/30 06:02:55;;;;;;;;;;;;;;;;;;5058116;28;19924;-69
2023/08/30 06:05:22;;;;;;;;;;;;;;;;;;5070659;28;19928;-70
2023/08/30 06:07:49;;;;;;;;;;;;;;;;;;5070681;28;19925;-69
2023/08/30 06:10:16;;;;;;;;;;;;;;;;;;5067835;28;19971;-68
2023/08/30 06:12:43;;;;;;;;;;;;;;;;;;5061652;28;19924;-69
2023/08/30 06:15:10;;;;;;;;;;;;;;;;;;5068928;28;20361;-69
2023/08/30 06:17:37;;;;;;;;;;;;;;;;;;5069596;28;19978;-70
2023/08/30 06:20:05;;;;;;;;;;;;;;;;;;5073570;28;20395;-69
2023/08/30 06:22:32;;;;;;;;;;;;;;;;;;5070640;28;19924;-68
2023/08/30 06:24:59;;;;;;;;;;;;;;;;;;5074252;28;19970;-71
2023/08/30 06:27:26;;;;;;;;;;;;;;;;;;5065891;28;20436;-70
2023/08/30 06:29:53;;;;;;;;;;;;;;;;;;5073065;28;19932;-70
2023/08/30 06:32:20;;;;;;;;;;;;;;;;;;5071689;28;20379;-69
2023/08/30 06:34:47;;;;;;;;;;;;;;;;;;5073160;28;19925;-70
2023/08/30 06:37:14;;;;;;;;;;;;;;;;;;5071946;28;19962;-69
2023/08/30 06:39:41;;;;;;;;;;;;;;;;;;5070257;28;19976;-69
2023/08/30 06:42:08;;;;;;;;;;;;;;;;;;5070319;28;19951;-69
2023/08/30 06:44:35;;;;;;;;;;;;;;;;;;5069159;28;19924;-70
2023/08/30 06:47:02;;;;;;;;;;;;;;;;;;5065002;28;19960;-70
2023/08/30 06:49:31;;;;;;;;;;;;;;;;;;5070752;28;20433;-69
2023/08/30 06:51:58;;;;;;;;;;;;;;;;;;5069525;28;19932;-69
2023/08/30 06:54:26;;;;;;;;;;;;;;;;;;5071547;28;19978;-69
2023/08/30 06:56:53;;;;;;;;;;;;;;;;;;5062630;28;19933;-70
2023/08/30 06:59:20;;;;;;;;;;;;;;;;;;5064612;28;20067;-69
2023/08/30 07:01:47;;;;;;;;;;;;;;;;;;5068134;28;19982;-69
2023/08/30 07:04:14;;;;;;;;;;;;;;;;;;5066926;28;20272;-69
2023/08/30 07:06:41;;;;;;;;;;;;;;;;;;5069575;28;19924;-70
2023/08/30 07:09:08;;;;;;;;;;;;;;;;;;5066495;28;20614;-68
2023/08/30 07:11:35;;;;;;;;;;;;;;;;;;5069400;28;19978;-68
2023/08/30 07:14:02;;;;;;;;;;;;;;;;;;5060844;28;19925;-69
2023/08/30 07:16:29;;;;;;;;;;;;;;;;;;5072037;28;19931;-69
2023/08/30 07:18:56;;;;;;;;;;;;;;;;;;5072398;28;19924;-69
2023/08/30 07:21:23;;;;;;;;;;;;;;;;;;5070135;28;19994;-69
2023/08/30 07:23:50;;;;;;;;;;;;;;;;;;5059559;28;20372;-69
2023/08/30 07:26:17;;;;;;;;;;;;;;;;;;5061195;28;19932;-69
2023/08/30 07:28:44;;;;;;;;;;;;;;;;;;5067937;28;19924;-70
2023/08/30 07:31:14;;;;;;;;;;;;;;;;;;5066294;28;20020;-69
2023/08/30 07:33:41;;;;;;;;;;;;;;;;;;5065807;28;19924;-70
2023/08/30 07:36:08;;;;;;;;;;;;;;;;;;5073295;28;20049;-70
2023/08/30 07:38:35;;;;;;;;;;;;;;;;;;5061848;28;20298;-70
2023/08/30 07:41:02;;;;;;;;;;;;;;;;;;5069601;28;19936;-69
2023/08/30 07:43:29;;;;;;;;;;;;;;;;;;5068181;28;20260;-69
2023/08/30 07:45:57;;;;;;;;;;;;;;;;;;5071845;28;19928;-68
2023/08/30 07:48:24;;;;;;;;;;;;;;;;;;5069014;28;19924;-69
2023/08/30 07:50:51;;;;;;;;;;;;;;;;;;5067385;28;19989;-69
2023/08/30 07:53:18;;;;;;;;;;;;;;;;;;5069608;28;19932;-70
2023/08/30 07:55:45;;;;;;;;;;;;;;;;;;5070226;28;19924;-69
2023/08/30 07:58:12;;;;;;;;;;;;;;;;;;5061842;28;19929;-70
2023/08/30 08:00:39;;;;;;;;;;;;;;;;;;5062931;28;19977;-70
2023/08/30 08:03:06;;;;;;;;;;;;;;;;;;5072219;28;19928;-70
2023/08/30 08:05:33;;;;;;;;;;;;;;;;;;5070567;28;19975;-70
2023/08/30 08:08:00;;;;;;;;;;;;;;;;;;5063178;28;19928;-69
2023/08/30 08:10:27;;;;;;;;;;;;;;;;;;5070482;28;19928;-69
2023/08/30 08:12:54;;;;;;;;;;;;;;;;;;5069432;28;19928;-69
2023/08/30 08:15:21;;;;;;;;;;;;;;;;;;5072449;28;19924;-69
2023/08/30 08:17:49;;;;;;;;;;;;;;;;;;5070616;28;19924;-70
2023/08/30 08:20:16;;;;;;;;;;;;;;;;;;5067659;28;19928;-70
2023/08/30 08:22:43;;;;;;;;;;;;;;;;;;5072230;28;20001;-69
2023/08/30 08:25:10;;;;;;;;;;;;;;;;;;5069911;28;20391;-70
2023/08/30 08:27:38;;;;;;;;;;;;;;;;;;5068322;28;19932;-69
2023/08/30 08:30:05;;;;;;;;;;;;;;;;;;5070627;28;19935;-69
2023/08/30 08:32:33;;;;;;;;;;;;;;;;;;5071047;28;19924;-69
2023/08/30 08:35:00;;;;;;;;;;;;;;;;;;5065949;28;20011;-72
2023/08/30 08:37:27;;;;;;;;;;;;;;;;;;5066477;28;19928;-70
2023/08/30 08:39:54;;;;;;;;;;;;;;;;;;5064884;28;20545;-69
2023/08/30 08:42:21;;;;;;;;;;;;;;;;;;5065912;28;19924;-68
2023/08/30 08:44:49;;;;;;;;;;;;;;;;;;5064662;28;19924;-68
2023/08/30 08:47:16;;;;;;;;;;;;;;;;;;5069020;28;20341;-71
2023/08/30 08:49:43;;;;;;;;;;;;;;;;;;5062062;28;19991;-70
2023/08/30 08:52:10;;;;;;;;;;;;;;;;;;5070074;28;19924;-71
2023/08/30 08:54:37;;;;;;;;;;;;;;;;;;5070335;28;20417;-72
2023/08/30 08:57:04;;;;;;;;;;;;;;;;;;5067313;28;19925;-71
2023/08/30 08:59:31;;;;;;;;;;;;;;;;;;5068114;28;19928;-71
2023/08/30 09:01:58;;;;;;;;;;;;;;;;;;5070441;28;19928;-71
2023/08/30 09:04:25;;;;;;;;;;;;;;;;;;5069015;28;19928;-71
2023/08/30 09:06:52;;;;;;;;;;;;;;;;;;5071544;28;19925;-70
2023/08/30 09:09:19;;;;;;;;;;;;;;;;;;5065219;28;20364;-72
2023/08/30 09:11:46;;;;;;;;;;;;;;;;;;5070486;28;19928;-70
2023/08/30 09:14:13;;;;;;;;;;;;;;;;;;5067805;28;19939;-69
2023/08/30 09:16:40;;;;;;;;;;;;;;;;;;5069713;28;20341;-68
2023/08/30 09:19:10;;;;;;;;;;;;;;;;;;5063741;28;19928;-69
2023/08/30 09:21:37;;;;;;;;;;;;;;;;;;5062629;28;19936;-70
2023/08/30 09:24:04;;;;;;;;;;;;;;;;;;5068870;28;19972;-69
2023/08/30 09:26:31;;;;;;;;;;;;;;;;;;5068369;28;19924;-68
2023/08/30 09:28:58;;;;;;;;;;;;;;;;;;5065918;28;19928;-70
2023/08/30 09:31:26;;;;;;;;;;;;;;;;;;5067706;28;19928;-69
2023/08/30 09:33:56;;;;;;;;;;;;;;;;;;5069860;28;20379;-70
2023/08/30 09:36:23;;;;;;;;;;;;;;;;;;5059080;28;19948;-69
2023/08/30 09:38:50;;;;;;;;;;;;;;;;;;5065286;28;19967;-70
2023/08/30 09:41:18;;;;;;;;;;;;;;;;;;5067603;28;19925;-70
2023/08/30 09:43:47;;;;;;;;;;;;;;;;;;5069546;28;19928;-70
2023/08/30 09:46:14;;;;;;;;;;;;;;;;;;5071209;28;19925;-70
2023/08/30 09:48:41;;;;;;;;;;;;;;;;;;5069393;28;19932;-71
2023/08/30 09:51:08;;;;;;;;;;;;;;;;;;5067088;28;19929;-69
2023/08/30 09:53:36;;;;;;;;;;;;;;;;;;5069999;28;19928;-71
2023/08/30 09:56:03;;;;;;;;;;;;;;;;;;5071847;28;20453;-70
2023/08/30 09:58:30;;;;;;;;;;;;;;;;;;5071684;28;20350;-71
2023/08/30 10:00:57;;;;;;;;;;;;;;;;;;5074326;28;19928;-73
2023/08/30 10:03:24;;;;;;;;;;;;;;;;;;5071622;28;20016;-73
2023/08/30 10:05:52;;;;;;;;;;;;;;;;;;5074862;28;20042;-72
2023/08/30 10:08:19;;;;;;;;;;;;;;;;;;5057767;28;19932;-72
2023/08/30 10:10:46;;;;;;;;;;;;;;;;;;5066489;28;20440;-71
2023/08/30 10:13:13;;;;;;;;;;;;;;;;;;5070718;28;20371;-70
2023/08/30 10:15:40;;;;;;;;;;;;;;;;;;5070726;28;19990;-69
2023/08/30 10:18:07;;;;;;;;;;;;;;;;;;5069226;28;19924;-70
2023/08/30 10:20:34;;;;;;;;;;;;;;;;;;5073954;28;20362;-69
2023/08/30 10:23:01;;;;;;;;;;;;;;;;;;5072924;28;19928;-69
2023/08/30 10:25:28;;;;;;;;;;;;;;;;;;5071515;28;20278;-68
2023/08/30 10:27:55;;;;;;;;;;;;;;;;;;5072673;28;20001;-69
2023/08/30 10:30:22;;;;;;;;;;;;;;;;;;5072922;28;19928;-70
2023/08/30 10:32:49;;;;;;;;;;;;;;;;;;5068660;28;20618;-69
2023/08/30 10:35:16;;;;;;;;;;;;;;;;;;5058035;28;19936;-70
2023/08/30 10:37:43;;;;;;;;;;;;;;;;;;5069770;28;19925;-69
2023/08/30 10:40:11;;;;;;;;;;;;;;;;;;5069962;28;19977;-71
2023/08/30 10:42:38;;;;;;;;;;;;;;;;;;5071959;28;20086;-67
2023/08/30 10:45:05;;;;;;;;;;;;;;;;;;5070504;28;19924;-69
2023/08/30 10:47:32;;;;;;;;;;;;;;;;;;5065362;28;19960;-70
2023/08/30 10:49:59;;;;;;;;;;;;;;;;;;5069087;28;20398;-69
2023/08/30 10:52:26;;;;;;;;;;;;;;;;;;5069573;28;19934;-70
2023/08/30 10:54:53;;;;;;;;;;;;;;;;;;5068180;28;19990;-70
2023/08/30 10:57:20;;;;;;;;;;;;;;;;;;5071219;28;19932;-69
2023/08/30 10:59:47;;;;;;;;;;;;;;;;;;5065678;28;19970;-70
2023/08/30 11:02:14;;;;;;;;;;;;;;;;;;5069933;28;19970;-71
2023/08/30 11:04:42;;;;;;;;;;;;;;;;;;5066912;28;19998;-71
2023/08/30 11:07:09;;;;;;;;;;;;;;;;;;5069661;28;19933;-70
2023/08/30 11:09:36;;;;;;;;;;;;;;;;;;5066630;28;20013;-70
2023/08/30 11:12:03;;;;;;;;;;;;;;;;;;5065235;28;19929;-70
2023/08/30 11:14:30;;;;;;;;;;;;;;;;;;5070638;28;19994;-70
2023/08/30 11:16:57;;;;;;;;;;;;;;;;;;5071684;28;19946;-71
2023/08/30 11:19:26;;;;;;;;;;;;;;;;;;5070542;28;20023;-72
2023/08/30 11:21:53;;;;;;;;;;;;;;;;;;5070640;28;20040;-72
2023/08/30 11:24:20;;;;;;;;;;;;;;;;;;5067908;28;19978;-71
2023/08/30 11:26:47;;;;;;;;;;;;;;;;;;5065983;28;19924;-71
2023/08/30 11:29:14;;;;;;;;;;;;;;;;;;5067571;28;19928;-71
2023/08/30 11:31:45;;;;;;;;;;;;;;;;;;5067369;28;20018;-71
2023/08/30 11:34:12;;;;;;;;;;;;;;;;;;5065584;28;20365;-72
2023/08/30 11:36:39;;;;;;;;;;;;;;;;;;5067587;28;19982;-71
2023/08/30 11:39:06;;;;;;;;;;;;;;;;;;5057385;28;19932;-71
2023/08/30 11:41:33;;;;;;;;;;;;;;;;;;5063303;28;20353;-69
2023/08/30 11:44:00;;;;;;;;;;;;;;;;;;5060109;28;19924;-67
2023/08/30 11:46:27;;;;;;;;;;;;;;;;;;5069732;28;20390;-68
2023/08/30 11:48:54;;;;;;;;;;;;;;;;;;5067800;28;19929;-67
2023/08/30 11:51:21;;;;;;;;;;;;;;;;;;5069534;28;19925;-67
2023/08/30 11:53:49;;;;;;;;;;;;;;;;;;5070712;28;19936;-68
2023/08/30 11:56:16;;;;;;;;;;;;;;;;;;5070047;28;19935;-68
2023/08/30 11:58:44;;;;;;;;;;;;;;;;;;5066642;28;19924;-67
2023/08/30 12:01:11;;;;;;;;;;;;;;;;;;5067992;28;19979;-67
2023/08/30 12:03:38;;;;;;;;;;;;;;;;;;5070471;28;19928;-67
2023/08/30 12:06:05;;;;;;;;;;;;;;;;;;5070381;28;19936;-68
2023/08/30 12:08:32;;;;;;;;;;;;;;;;;;5071887;28;19929;-68
2023/08/30 12:10:59;;;;;;;;;;;;;;;;;;5069112;28;19929;-68
2023/08/30 12:13:26;;;;;;;;;;;;;;;;;;5069556;28;20298;-68
2023/08/30 12:15:53;;;;;;;;;;;;;;;;;;5059299;28;20029;-67
2023/08/30 12:18:20;;;;;;;;;;;;;;;;;;5066247;28;19924;-67
2023/08/30 12:20:47;;;;;;;;;;;;;;;;;;5068353;28;19928;-67
2023/08/30 12:23:14;;;;;;;;;;;;;;;;;;5070915;28;19928;-68
2023/08/30 12:25:42;;;;;;;;;;;;;;;;;;5068954;28;20350;-67
2023/08/30 12:28:09;;;;;;;;;;;;;;;;;;5070295;28;19928;-67
2023/08/30 12:30:36;;;;;;;;;;;;;;;;;;5068450;28;19978;-67
2023/08/30 12:33:03;;;;;;;;;;;;;;;;;;5067815;28;19978;-67
2023/08/30 12:35:30;;;;;;;;;;;;;;;;;;5064105;28;20342;-67
2023/08/30 12:37:57;;;;;;;;;;;;;;;;;;5070065;28;19993;-67
2023/08/30 12:40:24;;;;;;;;;;;;;;;;;;5062085;28;19925;-67
2023/08/30 12:42:52;;;;;;;;;;;;;;;;;;5063085;28;19925;-67
2023/08/30 12:45:19;;;;;;;;;;;;;;;;;;5056913;28;20348;-65
2023/08/30 12:47:46;;;;;;;;;;;;;;;;;;5064189;28;19978;-67
2023/08/30 12:50:13;;;;;;;;;;;;;;;;;;5056954;28;20433;-68
2023/08/30 12:52:40;;;;;;;;;;;;;;;;;;5067207;28;19999;-67
2023/08/30 12:55:07;;;;;;;;;;;;;;;;;;5062364;28;19924;-66
2023/08/30 12:57:34;;;;;;;;;;;;;;;;;;5065646;28;19925;-67
2023/08/30 13:00:01;;;;;;;;;;;;;;;;;;5059538;28;19928;-68
2023/08/30 13:02:29;;;;;;;;;;;;;;;;;;5056529;28;19972;-68
2023/08/30 13:04:57;;;;;;;;;;;;;;;;;;5058554;28;20001;-67
2023/08/30 13:07:25;;;;;;;;;;;;;;;;;;5068413;28;19933;-68
2023/08/30 13:09:52;;;;;;;;;;;;;;;;;;5071536;28;19931;-67
2023/08/30 13:12:19;;;;;;;;;;;;;;;;;;5064541;28;20026;-68
2023/08/30 13:14:47;;;;;;;;;;;;;;;;;;5060365;28;20391;-69
2023/08/30 13:17:17;;;;;;;;;;;;;;;;;;5061317;28;20333;-69
2023/08/30 13:19:44;;;;;;;;;;;;;;;;;;5069964;28;20035;-69
2023/08/30 13:22:11;;;;;;;;;;;;;;;;;;5067517;28;19931;-70
2023/08/30 13:24:38;;;;;;;;;;;;;;;;;;5060839;28;19985;-68
2023/08/30 13:27:06;;;;;;;;;;;;;;;;;;5067110;28;19985;-68
2023/08/30 13:29:33;;;;;;;;;;;;;;;;;;5072682;28;19940;-68
2023/08/30 13:32:00;;;;;;;;;;;;;;;;;;5072798;28;19928;-69
2023/08/30 13:34:27;;;;;;;;;;;;;;;;;;5071654;28;19936;-69
2023/08/30 13:36:54;;;;;;;;;;;;;;;;;;5066947;28;20004;-69
2023/08/30 13:39:21;;;;;;;;;;;;;;;;;;5061241;28;19928;-69
2023/08/30 13:41:49;;;;;;;;;;;;;;;;;;5070171;28;20443;-67
2023/08/30 13:44:16;;;;;;;;;;;;;;;;;;5083494;22;19967;-68
2023/08/30 13:46:44;;;;;;;;;;;;;;;;;;5081765;28;19924;-70
2023/08/30 13:49:11;;;;;;;;;;;;;;;;;;5086557;28;19970;-69
2023/08/30 13:51:38;;;;;;;;;;;;;;;;;;5079922;28;19925;-70
2023/08/30 13:54:05;;;;;;;;;;;;;;;;;;5069528;28;20445;-71
2023/08/30 13:56:33;;;;;;;;;;;;;;;;;;5082166;28;19924;-67
2023/08/30 13:59:00;;;;;;;;;;;;;;;;;;5070201;28;20267;-68
2023/08/30 14:01:27;;;;;;;;;;;;;;;;;;5082216;28;19925;-69
2023/08/30 14:03:54;;;;;;;;;;;;;;;;;;5072690;28;19978;-69
2023/08/30 14:06:21;;;;;;;;;;;;;;;;;;5077950;28;19947;-69
2023/08/30 14:08:48;;;;;;;;;;;;;;;;;;5090429;28;19977;-69
2023/08/30 14:11:15;;;;;;;;;;;;;;;;;;5096404;28;20325;-68
2023/08/30 14:13:42;;;;;;;;;;;;;;;;;;5086729;28;19927;-69
2023/08/30 14:16:09;;;;;;;;;;;;;;;;;;5088361;28;19924;-69
2023/08/30 14:18:36;;;;;;;;;;;;;;;;;;5088188;28;19939;-69
2023/08/30 14:21:04;;;;;;;;;;;;;;;;;;5078790;28;20340;-69
2023/08/30 14:23:31;;;;;;;;;;;;;;;;;;5095401;28;20578;-68
2023/08/30 14:25:58;;;;;;;;;;;;;;;;;;5086096;28;19933;-71
2023/08/30 14:28:25;;;;;;;;;;;;;;;;;;5096146;28;20143;-69
2023/08/30 14:30:52;;;;;;;;;;;;;;;;;;5096465;28;20378;-69
2023/08/30 14:33:20;;;;;;;;;;;;;;;;;;5106561;28;19997;-68
2023/08/30 14:35:47;;;;;;;;;;;;;;;;;;5093855;28;19928;-68
2023/08/30 14:38:14;;;;;;;;;;;;;;;;;;5097854;28;19924;-68
2023/08/30 14:40:41;;;;;;;;;;;;;;;;;;5085200;28;19932;-67
2023/08/30 14:43:08;;;;;;;;;;;;;;;;;;5081684;28;19974;-69
2023/08/30 14:45:35;;;;;;;;;;;;;;;;;;5081916;28;19963;-68
2023/08/30 14:48:02;;;;;;;;;;;;;;;;;;5106450;28;19928;-69
2023/08/30 14:50:29;;;;;;;;;;;;;;;;;;5109458;28;19923;-68
2023/08/30 14:52:56;;;;;;;;;;;;;;;;;;5106533;28;20292;-68
2023/08/30 14:55:24;;;;;;;;;;;;;;;;;;5105381;28;19989;-69
2023/08/30 14:57:51;;;;;;;;;;;;;;;;;;5100364;28;19930;-68
2023/08/30 15:00:18;;;;;;;;;;;;;;;;;;5084789;28;19931;-69
2023/08/30 15:02:46;;;;;;;;;;;;;;;;;;5089257;28;19978;-68
2023/08/30 15:05:23;;;;;;;;;;;;;;;;;;5092900;28;20393;-69
2023/08/30 15:07:50;;;;;;;;;;;;;;;;;;5096146;28;19937;-68
2023/08/30 15:10:24;;;;;;;;;;;;;;;;;;5095909;28;19924;-66
2023/08/30 15:12:53;;;;;;;;;;;;;;;;;;5083034;28;19970;-68
2023/08/30 15:15:21;;;;;;;;;;;;;;;;;;5076077;28;19924;-68
2023/08/30 15:17:48;;;;;;;;;;;;;;;;;;5090635;28;20349;-68
2023/08/30 15:20:19;;;;;;;;;;;;;;;;;;5092378;28;19963;-68
2023/08/30 15:22:47;;;;;;;;;;;;;;;;;;5094289;28;20015;-68
2023/08/30 15:25:15;;;;;;;;;;;;;;;;;;5081313;28;20037;-67
2023/08/30 15:27:42;;;;;;;;;;;;;;;;;;5088780;28;19997;-67
2023/08/30 15:30:09;;;;;;;;;;;;;;;;;;5091454;28;20357;-67
2023/08/30 15:32:36;;;;;;;;;;;;;;;;;;5105025;28;19928;-68
2023/08/30 15:35:03;;;;;;;;;;;;;;;;;;5078930;28;20366;-67
2023/08/30 15:37:30;;;;;;;;;;;;;;;;;;5092047;28;20410;-67
2023/08/30 15:39:57;;;;;;;;;;;;;;;;;;5084608;28;20080;-69
2023/08/30 15:42:24;;;;;;;;;;;;;;;;;;5101305;28;20387;-68
2023/08/30 15:44:51;;;;;;;;;;;;;;;;;;5072342;28;19924;-68
2023/08/30 15:47:18;;;;;;;;;;;;;;;;;;5075092;28;19963;-69
2023/08/30 15:49:45;;;;;;;;;;;;;;;;;;5082436;28;19927;-68
2023/08/30 15:52:12;;;;;;;;;;;;;;;;;;5080413;28;19924;-67
2023/08/30 15:54:40;;;;;;;;;;;;;;;;;;5074210;28;19931;-69
2023/08/30 15:57:07;;;;;;;;;;;;;;;;;;5090676;28;20518;-68
2023/08/30 15:59:34;;;;;;;;;;;;;;;;;;5092955;28;19924;-68
2023/08/30 16:02:01;;;;;;;;;;;;;;;;;;5076466;28;20338;-69
2023/08/30 16:04:28;;;;;;;;;;;;;;;;;;5079945;28;19993;-69
2023/08/30 16:06:56;;;;;;;;;;;;;;;;;;5080527;28;19924;-69
2023/08/30 16:09:23;;;;;;;;;;;;;;;;;;5083510;28;19925;-68
2023/08/30 16:11:50;;;;;;;;;;;;;;;;;;5083755;28;19924;-68
2023/08/30 16:14:17;;;;;;;;;;;;;;;;;;5074237;28;19944;-66
2023/08/30 16:16:44;;;;;;;;;;;;;;;;;;5075282;28;19982;-67
2023/08/30 16:19:11;;;;;;;;;;;;;;;;;;5089813;28;19931;-68
2023/08/30 16:21:38;;;;;;;;;;;;;;;;;;5084630;28;19932;-68
2023/08/30 16:24:05;;;;;;;;;;;;;;;;;;5086390;28;20057;-67
2023/08/30 16:26:32;;;;;;;;;;;;;;;;;;5088426;28;20345;-68
2023/08/30 16:28:59;;;;;;;;;;;;;;;;;;5075141;28;19977;-67
2023/08/30 16:31:26;;;;;;;;;;;;;;;;;;5084636;28;19963;-68
2023/08/30 16:33:53;;;;;;;;;;;;;;;;;;5089319;28;19931;-69
2023/08/30 16:36:21;;;;;;;;;;;;;;;;;;5091632;28;19932;-67
2023/08/30 16:38:48;;;;;;;;;;;;;;;;;;5095473;28;19942;-67
2023/08/30 16:41:15;;;;;;;;;;;;;;;;;;5086482;28;20005;-68
2023/08/30 16:43:43;;;;;;;;;;;;;;;;;;5071756;28;20448;-67
2023/08/30 16:46:10;;;;;;;;;;;;;;;;;;5075439;28;19972;-69
2023/08/30 16:48:38;;;;;;;;;;;;;;;;;;5086056;28;19924;-68